sensor_id;sensor_type;location;lat;lon;timestamp;P1;durP1;ratioP1;P2;durP2;ratioP2
71606;SDS011;60641;53.556;9.914;2022-11-24T00:01:04;10.10;;;3.90;;
71606;SDS011;60641;53.556;9.914;2022-11-24T00:03:31;12.10;;;3.70;;
71606;SDS011;60641;53.556;9.914;2022-11-24T00:06:05;11.20;;;3.40;;
71606;SDS011;60641;53.556;9.914;2022-11-24T00:08:33;10.50;;;3.30;;
71606;SDS011;60641;53.556;9.914;2022-11-24T00:11:01;12.70;;;3.60;;
71606;SDS011;60641;53.556;9.914;2022-11-24T00:13:29;9.20;;;3.50;;
71606;SDS011;60641;53.556;9.914;2022-11-24T00:16:02;10.20;;;3.20;;
71606;SDS011;60641;53.556;9.914;2022-11-24T00:18:36;10.60;;;3.50;;
71606;SDS011;60641;53.556;9.914;2022-11-24T00:21:03;10.50;;;3.00;;
71606;SDS011;60641;53.556;9.914;2022-11-24T00:23:30;10.60;;;3.40;;
71606;SDS011;60641;53.556;9.914;2022-11-24T00:26:39;9.00;;;3.40;;
71606;SDS011;60641;53.556;9.914;2022-11-24T00:28:47;11.60;;;3.30;;
71606;SDS011;60641;53.556;9.914;2022-11-24T00:34:03;10.60;;;3.30;;
71606;SDS011;60641;53.556;9.914;2022-11-24T00:36:31;9.80;;;3.20;;
71606;SDS011;60641;53.556;9.914;2022-11-24T00:38:59;12.00;;;3.20;;
71606;SDS011;60641;53.556;9.914;2022-11-24T00:41:27;10.70;;;3.30;;
71606;SDS011;60641;53.556;9.914;2022-11-24T00:43:54;9.90;;;3.00;;
71606;SDS011;60641;53.556;9.914;2022-11-24T00:46:21;10.40;;;3.50;;
71606;SDS011;60641;53.556;9.914;2022-11-24T00:48:49;9.20;;;2.90;;
71606;SDS011;60641;53.556;9.914;2022-11-24T00:51:16;11.00;;;3.20;;
71606;SDS011;60641;53.556;9.914;2022-11-24T00:53:43;12.00;;;3.30;;
71606;SDS011;60641;53.556;9.914;2022-11-24T00:56:10;9.90;;;3.00;;
71606;SDS011;60641;53.556;9.914;2022-11-24T00:58:37;10.30;;;3.20;;
71606;SDS011;60641;53.556;9.914;2022-11-24T01:01:17;7.80;;;2.90;;
71606;SDS011;60641;53.556;9.914;2022-11-24T01:03:45;10.50;;;2.90;;
71606;SDS011;60641;53.556;9.914;2022-11-24T01:06:13;13.00;;;2.90;;
71606;SDS011;60641;53.556;9.914;2022-11-24T01:08:41;10.30;;;2.90;;
71606;SDS011;60641;53.556;9.914;2022-11-24T01:11:08;9.70;;;3.10;;
71606;SDS011;60641;53.556;9.914;2022-11-24T01:13:35;9.10;;;2.80;;
71606;SDS011;60641;53.556;9.914;2022-11-24T01:16:03;12.60;;;3.30;;
71606;SDS011;60641;53.556;9.914;2022-11-24T01:18:29;9.10;;;3.20;;
71606;SDS011;60641;53.556;9.914;2022-11-24T01:20:56;9.10;;;2.70;;
71606;SDS011;60641;53.556;9.914;2022-11-24T01:23:23;9.50;;;2.80;;
71606;SDS011;60641;53.556;9.914;2022-11-24T01:25:49;9.00;;;2.80;;
71606;SDS011;60641;53.556;9.914;2022-11-24T01:28:15;8.70;;;2.60;;
71606;SDS011;60641;53.556;9.914;2022-11-24T01:30:42;11.40;;;3.50;;
71606;SDS011;60641;53.556;9.914;2022-11-24T01:33:08;8.90;;;2.80;;
71606;SDS011;60641;53.556;9.914;2022-11-24T01:35:35;8.90;;;2.90;;
71606;SDS011;60641;53.556;9.914;2022-11-24T01:38:01;7.30;;;2.30;;
71606;SDS011;60641;53.556;9.914;2022-11-24T01:40:28;9.40;;;2.60;;
71606;SDS011;60641;53.556;9.914;2022-11-24T01:42:54;10.40;;;2.70;;
71606;SDS011;60641;53.556;9.914;2022-11-24T01:45:31;7.20;;;2.40;;
71606;SDS011;60641;53.556;9.914;2022-11-24T01:48:01;10.60;;;3.50;;
71606;SDS011;60641;53.556;9.914;2022-11-24T01:50:29;7.80;;;2.70;;
71606;SDS011;60641;53.556;9.914;2022-11-24T01:52:56;9.70;;;3.10;;
71606;SDS011;60641;53.556;9.914;2022-11-24T01:55:28;10.50;;;3.50;;
71606;SDS011;60641;53.556;9.914;2022-11-24T02:00:35;8.60;;;2.80;;
71606;SDS011;60641;53.556;9.914;2022-11-24T02:03:03;8.50;;;2.70;;
71606;SDS011;60641;53.556;9.914;2022-11-24T02:05:31;9.50;;;3.20;;
71606;SDS011;60641;53.556;9.914;2022-11-24T02:08:02;8.80;;;2.70;;
71606;SDS011;60641;53.556;9.914;2022-11-24T02:10:29;9.10;;;2.80;;
71606;SDS011;60641;53.556;9.914;2022-11-24T02:12:56;8.50;;;2.30;;
71606;SDS011;60641;53.556;9.914;2022-11-24T02:15:24;6.60;;;2.60;;
71606;SDS011;60641;53.556;9.914;2022-11-24T02:17:51;10.80;;;2.80;;
71606;SDS011;60641;53.556;9.914;2022-11-24T02:20:17;10.80;;;3.00;;
71606;SDS011;60641;53.556;9.914;2022-11-24T02:28:05;11.00;;;3.90;;
71606;SDS011;60641;53.556;9.914;2022-11-24T02:30:34;12.00;;;3.20;;
71606;SDS011;60641;53.556;9.914;2022-11-24T02:33:00;9.90;;;3.20;;
71606;SDS011;60641;53.556;9.914;2022-11-24T02:35:27;8.60;;;2.70;;
71606;SDS011;60641;53.556;9.914;2022-11-24T02:37:54;8.20;;;2.50;;
71606;SDS011;60641;53.556;9.914;2022-11-24T02:40:21;7.90;;;2.40;;
71606;SDS011;60641;53.556;9.914;2022-11-24T02:42:51;11.10;;;2.70;;
71606;SDS011;60641;53.556;9.914;2022-11-24T02:45:19;10.20;;;2.70;;
71606;SDS011;60641;53.556;9.914;2022-11-24T02:47:46;9.50;;;2.70;;
71606;SDS011;60641;53.556;9.914;2022-11-24T02:50:13;8.90;;;2.70;;
71606;SDS011;60641;53.556;9.914;2022-11-24T02:52:40;8.90;;;2.50;;
71606;SDS011;60641;53.556;9.914;2022-11-24T02:55:06;8.90;;;2.60;;
71606;SDS011;60641;53.556;9.914;2022-11-24T02:57:33;10.00;;;3.00;;
71606;SDS011;60641;53.556;9.914;2022-11-24T03:00:00;9.20;;;2.50;;
71606;SDS011;60641;53.556;9.914;2022-11-24T03:02:26;8.50;;;2.60;;
71606;SDS011;60641;53.556;9.914;2022-11-24T03:04:53;9.10;;;2.50;;
71606;SDS011;60641;53.556;9.914;2022-11-24T03:07:19;10.50;;;2.80;;
71606;SDS011;60641;53.556;9.914;2022-11-24T03:09:45;10.10;;;2.40;;
71606;SDS011;60641;53.556;9.914;2022-11-24T03:12:12;8.00;;;2.20;;
71606;SDS011;60641;53.556;9.914;2022-11-24T03:14:38;8.80;;;2.70;;
71606;SDS011;60641;53.556;9.914;2022-11-24T03:17:05;8.70;;;2.60;;
71606;SDS011;60641;53.556;9.914;2022-11-24T03:19:32;7.80;;;2.50;;
71606;SDS011;60641;53.556;9.914;2022-11-24T03:21:58;13.50;;;3.20;;
71606;SDS011;60641;53.556;9.914;2022-11-24T03:24:25;15.00;;;3.20;;
71606;SDS011;60641;53.556;9.914;2022-11-24T03:26:51;9.00;;;2.70;;
71606;SDS011;60641;53.556;9.914;2022-11-24T03:29:18;10.20;;;3.10;;
71606;SDS011;60641;53.556;9.914;2022-11-24T03:31:44;12.70;;;2.90;;
71606;SDS011;60641;53.556;9.914;2022-11-24T03:34:11;10.10;;;2.90;;
71606;SDS011;60641;53.556;9.914;2022-11-24T03:36:37;12.10;;;2.40;;
71606;SDS011;60641;53.556;9.914;2022-11-24T03:39:04;10.70;;;2.70;;
71606;SDS011;60641;53.556;9.914;2022-11-24T03:41:30;10.70;;;2.90;;
71606;SDS011;60641;53.556;9.914;2022-11-24T03:43:57;10.90;;;3.20;;
71606;SDS011;60641;53.556;9.914;2022-11-24T03:46:23;11.40;;;3.00;;
71606;SDS011;60641;53.556;9.914;2022-11-24T03:48:50;8.40;;;2.50;;
71606;SDS011;60641;53.556;9.914;2022-11-24T03:51:16;9.10;;;2.80;;
71606;SDS011;60641;53.556;9.914;2022-11-24T03:53:43;10.40;;;2.80;;
71606;SDS011;60641;53.556;9.914;2022-11-24T03:56:09;6.90;;;2.20;;
71606;SDS011;60641;53.556;9.914;2022-11-24T03:58:35;14.30;;;3.20;;
71606;SDS011;60641;53.556;9.914;2022-11-24T04:01:02;10.20;;;3.70;;
71606;SDS011;60641;53.556;9.914;2022-11-24T04:03:28;12.50;;;2.70;;
71606;SDS011;60641;53.556;9.914;2022-11-24T04:05:55;13.60;;;2.80;;
71606;SDS011;60641;53.556;9.914;2022-11-24T04:08:21;9.50;;;2.60;;
71606;SDS011;60641;53.556;9.914;2022-11-24T04:10:49;9.50;;;2.70;;
71606;SDS011;60641;53.556;9.914;2022-11-24T04:13:19;12.80;;;2.90;;
71606;SDS011;60641;53.556;9.914;2022-11-24T04:15:48;17.10;;;3.10;;
71606;SDS011;60641;53.556;9.914;2022-11-24T04:18:14;13.20;;;3.00;;
71606;SDS011;60641;53.556;9.914;2022-11-24T04:20:41;12.20;;;2.40;;
71606;SDS011;60641;53.556;9.914;2022-11-24T04:23:08;15.60;;;2.80;;
71606;SDS011;60641;53.556;9.914;2022-11-24T04:25:35;18.60;;;4.10;;
71606;SDS011;60641;53.556;9.914;2022-11-24T04:28:02;16.40;;;3.70;;
71606;SDS011;60641;53.556;9.914;2022-11-24T04:30:29;12.10;;;2.60;;
71606;SDS011;60641;53.556;9.914;2022-11-24T04:32:55;17.20;;;3.20;;
71606;SDS011;60641;53.556;9.914;2022-11-24T04:35:22;12.70;;;2.90;;
71606;SDS011;60641;53.556;9.914;2022-11-24T04:37:49;13.80;;;3.10;;
71606;SDS011;60641;53.556;9.914;2022-11-24T04:40:16;9.80;;;2.90;;
71606;SDS011;60641;53.556;9.914;2022-11-24T04:42:42;11.20;;;2.60;;
71606;SDS011;60641;53.556;9.914;2022-11-24T04:45:09;11.90;;;2.70;;
71606;SDS011;60641;53.556;9.914;2022-11-24T04:47:36;8.60;;;2.80;;
71606;SDS011;60641;53.556;9.914;2022-11-24T04:50:03;13.00;;;3.20;;
71606;SDS011;60641;53.556;9.914;2022-11-24T04:52:32;10.10;;;3.40;;
71606;SDS011;60641;53.556;9.914;2022-11-24T04:54:59;11.30;;;3.00;;
71606;SDS011;60641;53.556;9.914;2022-11-24T04:57:25;11.90;;;3.20;;
71606;SDS011;60641;53.556;9.914;2022-11-24T04:59:54;11.10;;;3.20;;
71606;SDS011;60641;53.556;9.914;2022-11-24T05:02:21;12.00;;;3.00;;
71606;SDS011;60641;53.556;9.914;2022-11-24T05:04:48;8.80;;;2.70;;
71606;SDS011;60641;53.556;9.914;2022-11-24T05:07:15;10.50;;;2.90;;
71606;SDS011;60641;53.556;9.914;2022-11-24T05:09:42;11.20;;;3.40;;
71606;SDS011;60641;53.556;9.914;2022-11-24T05:12:27;13.90;;;3.20;;
71606;SDS011;60641;53.556;9.914;2022-11-24T05:14:57;8.70;;;3.50;;
71606;SDS011;60641;53.556;9.914;2022-11-24T05:17:27;10.60;;;3.60;;
71606;SDS011;60641;53.556;9.914;2022-11-24T05:19:55;13.90;;;3.30;;
71606;SDS011;60641;53.556;9.914;2022-11-24T05:22:21;11.20;;;3.70;;
71606;SDS011;60641;53.556;9.914;2022-11-24T05:24:48;10.50;;;3.40;;
71606;SDS011;60641;53.556;9.914;2022-11-24T05:27:14;9.70;;;3.10;;
71606;SDS011;60641;53.556;9.914;2022-11-24T05:29:41;12.00;;;3.40;;
71606;SDS011;60641;53.556;9.914;2022-11-24T05:32:07;11.10;;;3.60;;
71606;SDS011;60641;53.556;9.914;2022-11-24T05:34:34;11.50;;;3.40;;
71606;SDS011;60641;53.556;9.914;2022-11-24T05:37:00;12.40;;;3.20;;
71606;SDS011;60641;53.556;9.914;2022-11-24T05:39:33;9.70;;;3.00;;
71606;SDS011;60641;53.556;9.914;2022-11-24T05:42:01;11.90;;;3.40;;
71606;SDS011;60641;53.556;9.914;2022-11-24T05:44:47;11.40;;;3.40;;
71606;SDS011;60641;53.556;9.914;2022-11-24T05:47:13;8.80;;;3.30;;
71606;SDS011;60641;53.556;9.914;2022-11-24T05:49:39;10.10;;;3.30;;
71606;SDS011;60641;53.556;9.914;2022-11-24T05:52:06;13.10;;;3.10;;
71606;SDS011;60641;53.556;9.914;2022-11-24T05:54:32;11.40;;;3.50;;
71606;SDS011;60641;53.556;9.914;2022-11-24T05:56:59;10.80;;;3.30;;
71606;SDS011;60641;53.556;9.914;2022-11-24T05:59:25;12.00;;;3.80;;
71606;SDS011;60641;53.556;9.914;2022-11-24T06:01:52;11.40;;;3.50;;
71606;SDS011;60641;53.556;9.914;2022-11-24T06:04:18;12.00;;;3.50;;
71606;SDS011;60641;53.556;9.914;2022-11-24T06:06:45;14.80;;;4.60;;
71606;SDS011;60641;53.556;9.914;2022-11-24T06:09:12;9.50;;;3.50;;
71606;SDS011;60641;53.556;9.914;2022-11-24T06:11:38;10.90;;;3.40;;
71606;SDS011;60641;53.556;9.914;2022-11-24T06:14:05;12.90;;;3.90;;
71606;SDS011;60641;53.556;9.914;2022-11-24T06:16:31;16.50;;;3.70;;
71606;SDS011;60641;53.556;9.914;2022-11-24T06:18:58;11.70;;;3.30;;
71606;SDS011;60641;53.556;9.914;2022-11-24T06:21:25;13.70;;;4.40;;
71606;SDS011;60641;53.556;9.914;2022-11-24T06:23:51;12.60;;;3.90;;
71606;SDS011;60641;53.556;9.914;2022-11-24T06:26:18;15.70;;;3.30;;
71606;SDS011;60641;53.556;9.914;2022-11-24T06:28:44;14.50;;;3.40;;
71606;SDS011;60641;53.556;9.914;2022-11-24T06:31:11;10.80;;;3.20;;
71606;SDS011;60641;53.556;9.914;2022-11-24T06:33:37;11.90;;;3.00;;
71606;SDS011;60641;53.556;9.914;2022-11-24T06:36:05;9.80;;;4.00;;
71606;SDS011;60641;53.556;9.914;2022-11-24T06:38:33;8.50;;;3.10;;
71606;SDS011;60641;53.556;9.914;2022-11-24T06:41:00;10.60;;;3.10;;
71606;SDS011;60641;53.556;9.914;2022-11-24T06:43:29;12.40;;;3.90;;
71606;SDS011;60641;53.556;9.914;2022-11-24T06:45:56;13.40;;;3.50;;
71606;SDS011;60641;53.556;9.914;2022-11-24T06:48:23;10.30;;;3.40;;
71606;SDS011;60641;53.556;9.914;2022-11-24T06:50:51;12.60;;;3.60;;
71606;SDS011;60641;53.556;9.914;2022-11-24T06:53:18;13.00;;;3.80;;
71606;SDS011;60641;53.556;9.914;2022-11-24T06:55:45;10.10;;;3.00;;
71606;SDS011;60641;53.556;9.914;2022-11-24T06:58:12;15.30;;;4.20;;
71606;SDS011;60641;53.556;9.914;2022-11-24T07:00:39;12.80;;;3.80;;
71606;SDS011;60641;53.556;9.914;2022-11-24T07:03:05;11.70;;;3.50;;
71606;SDS011;60641;53.556;9.914;2022-11-24T07:05:32;12.10;;;3.60;;
71606;SDS011;60641;53.556;9.914;2022-11-24T07:07:58;15.10;;;3.70;;
71606;SDS011;60641;53.556;9.914;2022-11-24T07:10:28;12.60;;;3.70;;
71606;SDS011;60641;53.556;9.914;2022-11-24T07:12:55;12.40;;;3.70;;
71606;SDS011;60641;53.556;9.914;2022-11-24T07:15:21;13.50;;;4.00;;
71606;SDS011;60641;53.556;9.914;2022-11-24T07:17:47;9.60;;;3.30;;
71606;SDS011;60641;53.556;9.914;2022-11-24T07:20:14;14.10;;;3.70;;
71606;SDS011;60641;53.556;9.914;2022-11-24T07:22:41;15.10;;;3.70;;
71606;SDS011;60641;53.556;9.914;2022-11-24T07:25:07;14.80;;;4.00;;
71606;SDS011;60641;53.556;9.914;2022-11-24T07:27:35;14.70;;;3.70;;
71606;SDS011;60641;53.556;9.914;2022-11-24T07:30:02;12.60;;;4.20;;
71606;SDS011;60641;53.556;9.914;2022-11-24T07:32:29;16.40;;;5.10;;
71606;SDS011;60641;53.556;9.914;2022-11-24T07:34:56;15.10;;;4.10;;
71606;SDS011;60641;53.556;9.914;2022-11-24T07:37:22;10.90;;;3.70;;
71606;SDS011;60641;53.556;9.914;2022-11-24T07:39:49;14.00;;;3.70;;
71606;SDS011;60641;53.556;9.914;2022-11-24T07:42:15;11.60;;;4.00;;
71606;SDS011;60641;53.556;9.914;2022-11-24T07:44:42;13.10;;;4.30;;
71606;SDS011;60641;53.556;9.914;2022-11-24T07:47:08;18.40;;;4.40;;
71606;SDS011;60641;53.556;9.914;2022-11-24T07:49:35;11.60;;;4.20;;
71606;SDS011;60641;53.556;9.914;2022-11-24T07:52:01;13.10;;;4.00;;
71606;SDS011;60641;53.556;9.914;2022-11-24T07:54:29;16.70;;;4.20;;
71606;SDS011;60641;53.556;9.914;2022-11-24T07:56:56;11.40;;;3.90;;
71606;SDS011;60641;53.556;9.914;2022-11-24T07:59:22;11.00;;;3.80;;
71606;SDS011;60641;53.556;9.914;2022-11-24T08:01:49;14.20;;;4.20;;
71606;SDS011;60641;53.556;9.914;2022-11-24T08:04:15;12.10;;;3.70;;
71606;SDS011;60641;53.556;9.914;2022-11-24T08:06:42;12.90;;;4.00;;
71606;SDS011;60641;53.556;9.914;2022-11-24T08:09:08;12.80;;;4.30;;
71606;SDS011;60641;53.556;9.914;2022-11-24T08:11:35;18.90;;;5.40;;
71606;SDS011;60641;53.556;9.914;2022-11-24T08:14:01;11.80;;;4.50;;
71606;SDS011;60641;53.556;9.914;2022-11-24T08:16:28;13.50;;;4.60;;
71606;SDS011;60641;53.556;9.914;2022-11-24T08:18:54;13.50;;;4.50;;
71606;SDS011;60641;53.556;9.914;2022-11-24T08:21:21;14.70;;;4.20;;
71606;SDS011;60641;53.556;9.914;2022-11-24T08:23:49;12.10;;;4.30;;
71606;SDS011;60641;53.556;9.914;2022-11-24T08:26:19;14.80;;;4.90;;
71606;SDS011;60641;53.556;9.914;2022-11-24T08:28:46;13.00;;;4.30;;
71606;SDS011;60641;53.556;9.914;2022-11-24T08:31:14;16.40;;;4.10;;
71606;SDS011;60641;53.556;9.914;2022-11-24T08:33:43;15.10;;;4.10;;
71606;SDS011;60641;53.556;9.914;2022-11-24T08:36:11;15.10;;;4.70;;
71606;SDS011;60641;53.556;9.914;2022-11-24T08:38:39;12.30;;;4.40;;
71606;SDS011;60641;53.556;9.914;2022-11-24T08:41:07;13.90;;;4.20;;
71606;SDS011;60641;53.556;9.914;2022-11-24T08:43:35;14.00;;;4.30;;
71606;SDS011;60641;53.556;9.914;2022-11-24T08:46:02;13.70;;;4.40;;
71606;SDS011;60641;53.556;9.914;2022-11-24T08:48:31;10.60;;;4.20;;
71606;SDS011;60641;53.556;9.914;2022-11-24T08:50:58;12.50;;;4.40;;
71606;SDS011;60641;53.556;9.914;2022-11-24T08:53:25;15.10;;;4.10;;
71606;SDS011;60641;53.556;9.914;2022-11-24T08:55:51;17.40;;;4.70;;
71606;SDS011;60641;53.556;9.914;2022-11-24T08:58:17;13.60;;;4.40;;
71606;SDS011;60641;53.556;9.914;2022-11-24T09:00:44;17.80;;;4.60;;
71606;SDS011;60641;53.556;9.914;2022-11-24T09:03:10;12.80;;;4.60;;
71606;SDS011;60641;53.556;9.914;2022-11-24T09:05:37;18.80;;;4.70;;
71606;SDS011;60641;53.556;9.914;2022-11-24T09:08:04;15.10;;;4.40;;
71606;SDS011;60641;53.556;9.914;2022-11-24T09:10:30;13.20;;;3.90;;
71606;SDS011;60641;53.556;9.914;2022-11-24T09:12:57;14.20;;;4.20;;
71606;SDS011;60641;53.556;9.914;2022-11-24T09:15:23;12.80;;;4.30;;
71606;SDS011;60641;53.556;9.914;2022-11-24T09:17:50;17.00;;;4.00;;
71606;SDS011;60641;53.556;9.914;2022-11-24T09:20:16;12.00;;;4.70;;
71606;SDS011;60641;53.556;9.914;2022-11-24T09:22:43;13.80;;;4.40;;
71606;SDS011;60641;53.556;9.914;2022-11-24T09:25:09;14.50;;;4.70;;
71606;SDS011;60641;53.556;9.914;2022-11-24T09:27:36;13.60;;;4.20;;
71606;SDS011;60641;53.556;9.914;2022-11-24T09:30:03;13.40;;;4.70;;
71606;SDS011;60641;53.556;9.914;2022-11-24T09:32:30;19.50;;;4.70;;
71606;SDS011;60641;53.556;9.914;2022-11-24T09:34:56;15.80;;;4.60;;
71606;SDS011;60641;53.556;9.914;2022-11-24T09:37:23;13.30;;;4.70;;
71606;SDS011;60641;53.556;9.914;2022-11-24T09:39:49;12.90;;;4.50;;
71606;SDS011;60641;53.556;9.914;2022-11-24T09:42:18;16.20;;;4.70;;
71606;SDS011;60641;53.556;9.914;2022-11-24T09:50:23;15.90;;;3.90;;
71606;SDS011;60641;53.556;9.914;2022-11-24T09:55:28;15.80;;;4.10;;
71606;SDS011;60641;53.556;9.914;2022-11-24T09:58:02;18.00;;;4.40;;
71606;SDS011;60641;53.556;9.914;2022-11-24T10:00:37;16.00;;;3.80;;
71606;SDS011;60641;53.556;9.914;2022-11-24T10:03:03;17.70;;;3.60;;
71606;SDS011;60641;53.556;9.914;2022-11-24T10:05:31;19.10;;;3.80;;
71606;SDS011;60641;53.556;9.914;2022-11-24T10:10:56;14.30;;;4.20;;
71606;SDS011;60641;53.556;9.914;2022-11-24T10:21:46;14.70;;;3.30;;
71606;SDS011;60641;53.556;9.914;2022-11-24T10:27:25;19.90;;;3.90;;
71606;SDS011;60641;53.556;9.914;2022-11-24T10:30:18;17.70;;;3.70;;
71606;SDS011;60641;53.556;9.914;2022-11-24T10:32:47;14.90;;;3.40;;
71606;SDS011;60641;53.556;9.914;2022-11-24T10:35:18;13.30;;;3.10;;
71606;SDS011;60641;53.556;9.914;2022-11-24T10:37:53;15.10;;;3.30;;
71606;SDS011;60641;53.556;9.914;2022-11-24T10:40:43;11.70;;;3.10;;
71606;SDS011;60641;53.556;9.914;2022-11-24T10:43:11;13.80;;;3.20;;
71606;SDS011;60641;53.556;9.914;2022-11-24T10:45:38;13.80;;;3.20;;
71606;SDS011;60641;53.556;9.914;2022-11-24T10:48:06;16.10;;;3.40;;
71606;SDS011;60641;53.556;9.914;2022-11-24T10:50:39;17.20;;;3.10;;
71606;SDS011;60641;53.556;9.914;2022-11-24T11:01:02;16.50;;;3.20;;
71606;SDS011;60641;53.556;9.914;2022-11-24T11:03:52;17.70;;;3.00;;
71606;SDS011;60641;53.556;9.914;2022-11-24T11:06:22;16.40;;;2.90;;
71606;SDS011;60641;53.556;9.914;2022-11-24T11:09:10;18.30;;;2.90;;
71606;SDS011;60641;53.556;9.914;2022-11-24T11:11:39;15.10;;;2.80;;
71606;SDS011;60641;53.556;9.914;2022-11-24T11:14:08;15.20;;;2.90;;
71606;SDS011;60641;53.556;9.914;2022-11-24T11:16:39;15.40;;;2.40;;
71606;SDS011;60641;53.556;9.914;2022-11-24T11:19:27;12.00;;;3.10;;
71606;SDS011;60641;53.556;9.914;2022-11-24T11:24:34;14.10;;;2.80;;
71606;SDS011;60641;53.556;9.914;2022-11-24T11:29:43;20.20;;;3.40;;
71606;SDS011;60641;53.556;9.914;2022-11-24T11:32:21;17.10;;;3.30;;
71606;SDS011;60641;53.556;9.914;2022-11-24T11:34:49;16.70;;;3.10;;
71606;SDS011;60641;53.556;9.914;2022-11-24T11:37:17;14.80;;;2.80;;
71606;SDS011;60641;53.556;9.914;2022-11-24T11:39:47;16.40;;;3.00;;
71606;SDS011;60641;53.556;9.914;2022-11-24T11:44:55;18.40;;;3.70;;
71606;SDS011;60641;53.556;9.914;2022-11-24T11:49:53;19.30;;;3.40;;
71606;SDS011;60641;53.556;9.914;2022-11-24T12:00:44;16.30;;;3.30;;
71606;SDS011;60641;53.556;9.914;2022-11-24T12:05:59;15.70;;;3.20;;
71606;SDS011;60641;53.556;9.914;2022-11-24T12:08:42;17.60;;;3.10;;
71606;SDS011;60641;53.556;9.914;2022-11-24T12:16:33;14.90;;;2.60;;
71606;SDS011;60641;53.556;9.914;2022-11-24T12:24:40;19.70;;;3.00;;
71606;SDS011;60641;53.556;9.914;2022-11-24T12:30:12;13.00;;;2.80;;
71606;SDS011;60641;53.556;9.914;2022-11-24T12:35:45;13.60;;;2.90;;
71606;SDS011;60641;53.556;9.914;2022-11-24T12:41:21;13.80;;;2.80;;
71606;SDS011;60641;53.556;9.914;2022-11-24T12:43:54;15.60;;;3.40;;
71606;SDS011;60641;53.556;9.914;2022-11-24T12:46:27;13.20;;;3.30;;
71606;SDS011;60641;53.556;9.914;2022-11-24T12:49:11;14.10;;;3.10;;
71606;SDS011;60641;53.556;9.914;2022-11-24T12:51:55;19.30;;;3.40;;
71606;SDS011;60641;53.556;9.914;2022-11-24T12:54:25;11.20;;;2.80;;
71606;SDS011;60641;53.556;9.914;2022-11-24T12:57:04;15.00;;;2.90;;
71606;SDS011;60641;53.556;9.914;2022-11-24T13:05:29;13.90;;;3.30;;
71606;SDS011;60641;53.556;9.914;2022-11-24T13:08:01;13.20;;;3.10;;
71606;SDS011;60641;53.556;9.914;2022-11-24T13:10:33;15.00;;;2.90;;
71606;SDS011;60641;53.556;9.914;2022-11-24T13:13:05;16.00;;;2.80;;
71606;SDS011;60641;53.556;9.914;2022-11-24T13:16:00;14.10;;;2.80;;
71606;SDS011;60641;53.556;9.914;2022-11-24T13:23:56;16.90;;;2.90;;
71606;SDS011;60641;53.556;9.914;2022-11-24T13:26:27;13.90;;;2.70;;
71606;SDS011;60641;53.556;9.914;2022-11-24T13:31:27;12.70;;;2.60;;
71606;SDS011;60641;53.556;9.914;2022-11-24T13:33:53;13.10;;;2.60;;
71606;SDS011;60641;53.556;9.914;2022-11-24T13:49:57;11.30;;;3.10;;
71606;SDS011;60641;53.556;9.914;2022-11-24T13:57:40;12.00;;;2.70;;
71606;SDS011;60641;53.556;9.914;2022-11-24T14:00:21;17.90;;;3.00;;
71606;SDS011;60641;53.556;9.914;2022-11-24T14:03:02;15.60;;;2.80;;
71606;SDS011;60641;53.556;9.914;2022-11-24T14:05:34;14.30;;;2.80;;
71606;SDS011;60641;53.556;9.914;2022-11-24T14:08:04;11.10;;;2.60;;
71606;SDS011;60641;53.556;9.914;2022-11-24T14:10:35;15.40;;;2.80;;
71606;SDS011;60641;53.556;9.914;2022-11-24T14:13:15;15.60;;;3.00;;
71606;SDS011;60641;53.556;9.914;2022-11-24T14:16:02;17.00;;;3.20;;
71606;SDS011;60641;53.556;9.914;2022-11-24T14:18:38;15.30;;;2.90;;
71606;SDS011;60641;53.556;9.914;2022-11-24T14:23:47;17.80;;;3.30;;
71606;SDS011;60641;53.556;9.914;2022-11-24T14:26:20;14.20;;;3.00;;
71606;SDS011;60641;53.556;9.914;2022-11-24T14:29:14;14.90;;;3.00;;
71606;SDS011;60641;53.556;9.914;2022-11-24T14:31:45;19.10;;;3.00;;
71606;SDS011;60641;53.556;9.914;2022-11-24T14:34:18;13.60;;;2.50;;
71606;SDS011;60641;53.556;9.914;2022-11-24T14:36:49;14.50;;;2.50;;
71606;SDS011;60641;53.556;9.914;2022-11-24T14:39:17;11.70;;;2.50;;
71606;SDS011;60641;53.556;9.914;2022-11-24T14:41:49;14.00;;;2.80;;
71606;SDS011;60641;53.556;9.914;2022-11-24T14:44:18;18.20;;;2.90;;
71606;SDS011;60641;53.556;9.914;2022-11-24T14:46:46;13.50;;;3.10;;
71606;SDS011;60641;53.556;9.914;2022-11-24T14:49:17;12.50;;;2.40;;
71606;SDS011;60641;53.556;9.914;2022-11-24T14:51:47;13.20;;;2.60;;
71606;SDS011;60641;53.556;9.914;2022-11-24T14:54:19;14.30;;;3.30;;
71606;SDS011;60641;53.556;9.914;2022-11-24T14:59:23;19.20;;;4.50;;
71606;SDS011;60641;53.556;9.914;2022-11-24T15:01:51;14.10;;;3.10;;
71606;SDS011;60641;53.556;9.914;2022-11-24T15:04:19;12.80;;;2.60;;
71606;SDS011;60641;53.556;9.914;2022-11-24T15:06:58;13.70;;;2.60;;
71606;SDS011;60641;53.556;9.914;2022-11-24T15:09:35;12.80;;;2.20;;
71606;SDS011;60641;53.556;9.914;2022-11-24T15:12:06;13.50;;;2.50;;
71606;SDS011;60641;53.556;9.914;2022-11-24T15:14:44;13.90;;;2.90;;
71606;SDS011;60641;53.556;9.914;2022-11-24T15:17:19;14.50;;;2.80;;
71606;SDS011;60641;53.556;9.914;2022-11-24T15:19:50;14.00;;;2.20;;
71606;SDS011;60641;53.556;9.914;2022-11-24T15:22:41;15.30;;;2.50;;
71606;SDS011;60641;53.556;9.914;2022-11-24T15:25:25;9.80;;;2.30;;
71606;SDS011;60641;53.556;9.914;2022-11-24T15:27:54;13.40;;;2.40;;
71606;SDS011;60641;53.556;9.914;2022-11-24T15:30:20;15.60;;;2.70;;
71606;SDS011;60641;53.556;9.914;2022-11-24T15:32:50;13.80;;;3.30;;
71606;SDS011;60641;53.556;9.914;2022-11-24T15:35:21;12.70;;;2.60;;
71606;SDS011;60641;53.556;9.914;2022-11-24T15:37:53;15.20;;;2.90;;
71606;SDS011;60641;53.556;9.914;2022-11-24T15:40:20;13.00;;;2.70;;
71606;SDS011;60641;53.556;9.914;2022-11-24T15:42:50;15.80;;;2.80;;
71606;SDS011;60641;53.556;9.914;2022-11-24T15:45:18;15.90;;;2.90;;
71606;SDS011;60641;53.556;9.914;2022-11-24T15:47:46;14.40;;;2.40;;
71606;SDS011;60641;53.556;9.914;2022-11-24T15:50:13;13.70;;;3.10;;
71606;SDS011;60641;53.556;9.914;2022-11-24T15:52:40;12.10;;;2.70;;
71606;SDS011;60641;53.556;9.914;2022-11-24T15:55:12;15.10;;;2.80;;
71606;SDS011;60641;53.556;9.914;2022-11-24T15:57:45;13.40;;;2.70;;
71606;SDS011;60641;53.556;9.914;2022-11-24T16:00:15;15.30;;;3.20;;
71606;SDS011;60641;53.556;9.914;2022-11-24T16:02:46;14.90;;;4.40;;
71606;SDS011;60641;53.556;9.914;2022-11-24T16:05:13;14.80;;;4.20;;
71606;SDS011;60641;53.556;9.914;2022-11-24T16:07:40;17.30;;;4.30;;
71606;SDS011;60641;53.556;9.914;2022-11-24T16:10:09;17.20;;;3.60;;
71606;SDS011;60641;53.556;9.914;2022-11-24T16:12:40;15.90;;;3.80;;
71606;SDS011;60641;53.556;9.914;2022-11-24T16:15:06;13.70;;;3.20;;
71606;SDS011;60641;53.556;9.914;2022-11-24T16:17:33;14.70;;;3.70;;
71606;SDS011;60641;53.556;9.914;2022-11-24T16:20:00;19.00;;;3.60;;
71606;SDS011;60641;53.556;9.914;2022-11-24T16:22:27;18.90;;;3.70;;
71606;SDS011;60641;53.556;9.914;2022-11-24T16:24:53;18.80;;;6.20;;
71606;SDS011;60641;53.556;9.914;2022-11-24T16:27:20;19.80;;;5.20;;
71606;SDS011;60641;53.556;9.914;2022-11-24T16:29:46;16.90;;;3.90;;
71606;SDS011;60641;53.556;9.914;2022-11-24T16:32:13;15.60;;;3.90;;
71606;SDS011;60641;53.556;9.914;2022-11-24T16:34:39;15.50;;;3.50;;
71606;SDS011;60641;53.556;9.914;2022-11-24T16:37:06;17.30;;;4.00;;
71606;SDS011;60641;53.556;9.914;2022-11-24T16:39:32;14.60;;;4.10;;
71606;SDS011;60641;53.556;9.914;2022-11-24T16:41:58;15.20;;;4.40;;
71606;SDS011;60641;53.556;9.914;2022-11-24T16:44:25;15.70;;;3.80;;
71606;SDS011;60641;53.556;9.914;2022-11-24T16:46:51;13.10;;;3.80;;